sensor_id;sensor_type;location;lat;lon;timestamp;temperature;humidity
32522;DHT22;18963;51.504;5.316;2022-08-19T00:00:10;15.50;99.90
32522;DHT22;18963;51.504;5.316;2022-08-19T00:02:36;15.50;99.90
32522;DHT22;18963;51.504;5.316;2022-08-19T00:05:02;15.50;99.90
32522;DHT22;18963;51.504;5.316;2022-08-19T00:07:27;15.50;99.90
32522;DHT22;18963;51.504;5.316;2022-08-19T00:09:53;15.50;99.90
32522;DHT22;18963;51.504;5.316;2022-08-19T00:12:19;15.50;99.90
32522;DHT22;18963;51.504;5.316;2022-08-19T00:14:44;15.40;99.90
32522;DHT22;18963;51.504;5.316;2022-08-19T00:17:10;15.40;99.90
32522;DHT22;18963;51.504;5.316;2022-08-19T00:19:35;15.30;99.90
32522;DHT22;18963;51.504;5.316;2022-08-19T00:22:01;15.30;99.90
32522;DHT22;18963;51.504;5.316;2022-08-19T00:24:27;15.20;99.90
32522;DHT22;18963;51.504;5.316;2022-08-19T00:26:54;15.30;99.90
32522;DHT22;18963;51.504;5.316;2022-08-19T00:29:22;15.30;99.90
32522;DHT22;18963;51.504;5.316;2022-08-19T00:31:47;15.30;99.90
32522;DHT22;18963;51.504;5.316;2022-08-19T00:34:14;15.30;99.90
32522;DHT22;18963;51.504;5.316;2022-08-19T00:36:40;15.30;99.90
32522;DHT22;18963;51.504;5.316;2022-08-19T00:39:05;15.30;99.90
32522;DHT22;18963;51.504;5.316;2022-08-19T00:41:31;15.30;99.90
32522;DHT22;18963;51.504;5.316;2022-08-19T00:44:05;15.20;99.90
32522;DHT22;18963;51.504;5.316;2022-08-19T00:46:31;15.30;99.90
32522;DHT22;18963;51.504;5.316;2022-08-19T00:48:58;15.30;99.90
32522;DHT22;18963;51.504;5.316;2022-08-19T00:51:27;15.30;99.90
32522;DHT22;18963;51.504;5.316;2022-08-19T00:53:54;15.30;99.90
32522;DHT22;18963;51.504;5.316;2022-08-19T00:56:20;15.20;99.90
32522;DHT22;18963;51.504;5.316;2022-08-19T00:58:45;15.20;99.90
32522;DHT22;18963;51.504;5.316;2022-08-19T01:01:11;15.20;99.90
32522;DHT22;18963;51.504;5.316;2022-08-19T01:03:37;15.20;99.90
32522;DHT22;18963;51.504;5.316;2022-08-19T01:06:02;15.20;99.90
32522;DHT22;18963;51.504;5.316;2022-08-19T01:08:28;15.30;99.90
32522;DHT22;18963;51.504;5.316;2022-08-19T01:10:54;15.30;99.90
32522;DHT22;18963;51.504;5.316;2022-08-19T01:13:21;15.30;99.90
32522;DHT22;18963;51.504;5.316;2022-08-19T01:15:52;15.40;99.90
32522;DHT22;18963;51.504;5.316;2022-08-19T01:18:19;15.40;99.90
32522;DHT22;18963;51.504;5.316;2022-08-19T01:20:45;15.40;99.90
32522;DHT22;18963;51.504;5.316;2022-08-19T01:23:11;15.50;99.90
32522;DHT22;18963;51.504;5.316;2022-08-19T01:28:06;15.60;99.90
32522;DHT22;18963;51.504;5.316;2022-08-19T01:30:32;15.60;99.90
32522;DHT22;18963;51.504;5.316;2022-08-19T01:32:58;15.60;99.90
32522;DHT22;18963;51.504;5.316;2022-08-19T01:35:25;15.70;99.90
32522;DHT22;18963;51.504;5.316;2022-08-19T01:38:02;15.70;99.90
32522;DHT22;18963;51.504;5.316;2022-08-19T01:40:29;15.70;99.90
32522;DHT22;18963;51.504;5.316;2022-08-19T01:42:54;15.70;99.90
32522;DHT22;18963;51.504;5.316;2022-08-19T01:45:21;15.60;99.90
32522;DHT22;18963;51.504;5.316;2022-08-19T01:47:47;15.60;99.90
32522;DHT22;18963;51.504;5.316;2022-08-19T01:50:12;15.50;99.90
32522;DHT22;18963;51.504;5.316;2022-08-19T01:52:39;15.50;99.90
32522;DHT22;18963;51.504;5.316;2022-08-19T01:55:05;15.50;99.90
32522;DHT22;18963;51.504;5.316;2022-08-19T01:57:31;15.50;99.90
32522;DHT22;18963;51.504;5.316;2022-08-19T01:59:57;15.50;99.90
32522;DHT22;18963;51.504;5.316;2022-08-19T02:02:22;15.50;99.90
32522;DHT22;18963;51.504;5.316;2022-08-19T02:04:48;15.50;99.90
32522;DHT22;18963;51.504;5.316;2022-08-19T02:07:13;15.50;99.90
32522;DHT22;18963;51.504;5.316;2022-08-19T02:09:39;15.50;99.90
32522;DHT22;18963;51.504;5.316;2022-08-19T02:12:05;15.50;99.90
32522;DHT22;18963;51.504;5.316;2022-08-19T02:14:33;15.50;99.90
32522;DHT22;18963;51.504;5.316;2022-08-19T02:16:59;15.60;99.90
32522;DHT22;18963;51.504;5.316;2022-08-19T02:19:24;15.60;99.90
32522;DHT22;18963;51.504;5.316;2022-08-19T02:21:51;15.70;99.90
32522;DHT22;18963;51.504;5.316;2022-08-19T02:24:16;15.70;99.90
32522;DHT22;18963;51.504;5.316;2022-08-19T02:26:42;15.70;99.90
32522;DHT22;18963;51.504;5.316;2022-08-19T02:29:07;15.70;99.90
32522;DHT22;18963;51.504;5.316;2022-08-19T02:31:33;15.70;99.90
32522;DHT22;18963;51.504;5.316;2022-08-19T02:33:58;15.70;99.90
32522;DHT22;18963;51.504;5.316;2022-08-19T02:36:24;15.70;99.90
32522;DHT22;18963;51.504;5.316;2022-08-19T02:38:50;15.70;99.90
32522;DHT22;18963;51.504;5.316;2022-08-19T02:41:19;15.70;99.90
32522;DHT22;18963;51.504;5.316;2022-08-19T02:43:45;15.70;99.90
32522;DHT22;18963;51.504;5.316;2022-08-19T02:46:18;15.70;99.90
32522;DHT22;18963;51.504;5.316;2022-08-19T02:48:49;15.70;99.90
32522;DHT22;18963;51.504;5.316;2022-08-19T02:51:19;15.60;99.90
32522;DHT22;18963;51.504;5.316;2022-08-19T02:53:45;15.70;99.90
32522;DHT22;18963;51.504;5.316;2022-08-19T02:56:10;15.70;99.90
32522;DHT22;18963;51.504;5.316;2022-08-19T02:58:36;15.70;99.90
32522;DHT22;18963;51.504;5.316;2022-08-19T03:01:01;15.70;99.90
32522;DHT22;18963;51.504;5.316;2022-08-19T03:03:27;15.70;99.90
32522;DHT22;18963;51.504;5.316;2022-08-19T03:06:02;15.70;99.90
32522;DHT22;18963;51.504;5.316;2022-08-19T03:08:27;15.70;99.90
32522;DHT22;18963;51.504;5.316;2022-08-19T03:10:53;15.70;99.90
32522;DHT22;18963;51.504;5.316;2022-08-19T03:13:19;15.70;99.90
32522;DHT22;18963;51.504;5.316;2022-08-19T03:15:46;15.70;99.90
32522;DHT22;18963;51.504;5.316;2022-08-19T03:18:12;15.70;99.90
32522;DHT22;18963;51.504;5.316;2022-08-19T03:20:45;15.70;99.90
32522;DHT22;18963;51.504;5.316;2022-08-19T03:23:11;15.60;99.90
32522;DHT22;18963;51.504;5.316;2022-08-19T03:25:41;15.60;99.90
32522;DHT22;18963;51.504;5.316;2022-08-19T03:28:11;15.60;99.90
32522;DHT22;18963;51.504;5.316;2022-08-19T03:30:38;15.50;99.90
32522;DHT22;18963;51.504;5.316;2022-08-19T03:33:06;15.50;99.90
32522;DHT22;18963;51.504;5.316;2022-08-19T03:35:31;15.40;99.90
32522;DHT22;18963;51.504;5.316;2022-08-19T03:37:58;15.40;99.90
32522;DHT22;18963;51.504;5.316;2022-08-19T03:40:23;15.30;99.90
32522;DHT22;18963;51.504;5.316;2022-08-19T03:42:49;15.20;99.90
32522;DHT22;18963;51.504;5.316;2022-08-19T03:45:15;15.20;99.90
32522;DHT22;18963;51.504;5.316;2022-08-19T03:47:40;15.10;99.90
32522;DHT22;18963;51.504;5.316;2022-08-19T03:50:06;15.10;99.90
32522;DHT22;18963;51.504;5.316;2022-08-19T03:52:31;15.10;99.90
32522;DHT22;18963;51.504;5.316;2022-08-19T03:54:57;15.10;99.90
32522;DHT22;18963;51.504;5.316;2022-08-19T03:57:22;15.00;99.90
32522;DHT22;18963;51.504;5.316;2022-08-19T03:59:48;15.00;99.90
32522;DHT22;18963;51.504;5.316;2022-08-19T04:02:13;15.00;99.90
32522;DHT22;18963;51.504;5.316;2022-08-19T04:04:40;14.90;99.90
32522;DHT22;18963;51.504;5.316;2022-08-19T04:07:06;14.90;99.90
32522;DHT22;18963;51.504;5.316;2022-08-19T04:09:33;14.90;99.90
32522;DHT22;18963;51.504;5.316;2022-08-19T04:11:58;14.80;99.90
32522;DHT22;18963;51.504;5.316;2022-08-19T04:14:29;14.80;99.90
32522;DHT22;18963;51.504;5.316;2022-08-19T04:16:59;14.80;99.90
32522;DHT22;18963;51.504;5.316;2022-08-19T04:19:25;14.70;99.90
32522;DHT22;18963;51.504;5.316;2022-08-19T04:21:51;14.70;99.90
32522;DHT22;18963;51.504;5.316;2022-08-19T04:24:17;14.60;99.90
32522;DHT22;18963;51.504;5.316;2022-08-19T04:26:43;14.60;99.90
32522;DHT22;18963;51.504;5.316;2022-08-19T04:29:13;14.60;99.90
32522;DHT22;18963;51.504;5.316;2022-08-19T04:31:39;14.60;99.90
32522;DHT22;18963;51.504;5.316;2022-08-19T04:34:07;14.60;99.90
32522;DHT22;18963;51.504;5.316;2022-08-19T04:36:33;14.60;99.90
32522;DHT22;18963;51.504;5.316;2022-08-19T04:39:00;14.60;99.90
32522;DHT22;18963;51.504;5.316;2022-08-19T04:41:26;14.60;99.90
32522;DHT22;18963;51.504;5.316;2022-08-19T04:44:10;14.50;99.90
32522;DHT22;18963;51.504;5.316;2022-08-19T04:46:36;14.50;99.90
32522;DHT22;18963;51.504;5.316;2022-08-19T04:49:03;14.50;99.90
32522;DHT22;18963;51.504;5.316;2022-08-19T04:51:30;14.50;99.90
32522;DHT22;18963;51.504;5.316;2022-08-19T04:53:56;14.50;99.90
32522;DHT22;18963;51.504;5.316;2022-08-19T04:56:22;14.50;99.90
32522;DHT22;18963;51.504;5.316;2022-08-19T04:58:48;14.50;99.90
32522;DHT22;18963;51.504;5.316;2022-08-19T05:01:14;14.50;99.90
32522;DHT22;18963;51.504;5.316;2022-08-19T05:03:42;14.50;99.90
32522;DHT22;18963;51.504;5.316;2022-08-19T05:06:09;14.50;99.90
32522;DHT22;18963;51.504;5.316;2022-08-19T05:08:36;14.60;99.90
32522;DHT22;18963;51.504;5.316;2022-08-19T05:11:06;14.60;99.90
32522;DHT22;18963;51.504;5.316;2022-08-19T05:13:32;14.60;99.90
32522;DHT22;18963;51.504;5.316;2022-08-19T05:15:58;14.60;99.90
32522;DHT22;18963;51.504;5.316;2022-08-19T05:18:24;14.60;99.90
32522;DHT22;18963;51.504;5.316;2022-08-19T05:21:10;14.60;99.90
32522;DHT22;18963;51.504;5.316;2022-08-19T05:23:54;14.70;99.90
32522;DHT22;18963;51.504;5.316;2022-08-19T05:26:19;14.70;99.90
32522;DHT22;18963;51.504;5.316;2022-08-19T05:28:45;14.80;99.90
32522;DHT22;18963;51.504;5.316;2022-08-19T05:31:10;14.80;99.90
32522;DHT22;18963;51.504;5.316;2022-08-19T05:33:36;14.90;99.90
32522;DHT22;18963;51.504;5.316;2022-08-19T05:36:02;15.00;99.90
32522;DHT22;18963;51.504;5.316;2022-08-19T05:38:28;15.10;99.90
32522;DHT22;18963;51.504;5.316;2022-08-19T05:40:53;15.10;99.90
32522;DHT22;18963;51.504;5.316;2022-08-19T05:43:19;15.20;99.90
32522;DHT22;18963;51.504;5.316;2022-08-19T05:45:44;15.30;99.90
32522;DHT22;18963;51.504;5.316;2022-08-19T05:48:10;15.30;99.90
32522;DHT22;18963;51.504;5.316;2022-08-19T05:50:37;15.40;99.90
32522;DHT22;18963;51.504;5.316;2022-08-19T05:53:02;15.50;99.90
32522;DHT22;18963;51.504;5.316;2022-08-19T05:55:28;15.60;99.90
32522;DHT22;18963;51.504;5.316;2022-08-19T05:57:53;15.60;99.90
32522;DHT22;18963;51.504;5.316;2022-08-19T06:00:18;15.70;99.90
32522;DHT22;18963;51.504;5.316;2022-08-19T06:02:44;15.80;99.90
32522;DHT22;18963;51.504;5.316;2022-08-19T06:05:10;15.90;99.90
32522;DHT22;18963;51.504;5.316;2022-08-19T06:07:36;16.10;99.90
32522;DHT22;18963;51.504;5.316;2022-08-19T06:10:05;16.20;99.90
32522;DHT22;18963;51.504;5.316;2022-08-19T06:12:31;16.30;99.90
32522;DHT22;18963;51.504;5.316;2022-08-19T06:14:59;16.50;99.90
32522;DHT22;18963;51.504;5.316;2022-08-19T06:17:25;16.60;99.90
32522;DHT22;18963;51.504;5.316;2022-08-19T06:19:51;16.80;99.90
32522;DHT22;18963;51.504;5.316;2022-08-19T06:22:17;16.90;99.90
32522;DHT22;18963;51.504;5.316;2022-08-19T06:24:42;17.00;99.90
32522;DHT22;18963;51.504;5.316;2022-08-19T06:27:08;17.10;99.90
32522;DHT22;18963;51.504;5.316;2022-08-19T06:29:33;17.30;99.90
32522;DHT22;18963;51.504;5.316;2022-08-19T06:32:01;17.40;99.90
32522;DHT22;18963;51.504;5.316;2022-08-19T06:34:28;17.60;99.90
32522;DHT22;18963;51.504;5.316;2022-08-19T06:36:53;17.70;99.90
32522;DHT22;18963;51.504;5.316;2022-08-19T06:39:21;17.80;99.90
32522;DHT22;18963;51.504;5.316;2022-08-19T06:41:48;18.00;99.90
32522;DHT22;18963;51.504;5.316;2022-08-19T06:44:14;18.20;99.90
32522;DHT22;18963;51.504;5.316;2022-08-19T06:46:40;18.30;99.90
32522;DHT22;18963;51.504;5.316;2022-08-19T06:49:06;18.50;99.90
32522;DHT22;18963;51.504;5.316;2022-08-19T06:51:33;18.60;99.90
32522;DHT22;18963;51.504;5.316;2022-08-19T06:53:59;18.70;99.90
32522;DHT22;18963;51.504;5.316;2022-08-19T06:56:26;18.80;99.90
32522;DHT22;18963;51.504;5.316;2022-08-19T06:59:06;19.00;99.90
32522;DHT22;18963;51.504;5.316;2022-08-19T07:01:39;19.20;99.90
32522;DHT22;18963;51.504;5.316;2022-08-19T07:04:08;19.30;99.90
32522;DHT22;18963;51.504;5.316;2022-08-19T07:06:35;19.50;99.90
32522;DHT22;18963;51.504;5.316;2022-08-19T07:09:00;19.70;99.90
32522;DHT22;18963;51.504;5.316;2022-08-19T07:11:26;19.80;99.90
32522;DHT22;18963;51.504;5.316;2022-08-19T07:13:51;19.90;99.90
32522;DHT22;18963;51.504;5.316;2022-08-19T07:16:18;20.00;99.90
32522;DHT22;18963;51.504;5.316;2022-08-19T07:18:48;20.20;99.90
32522;DHT22;18963;51.504;5.316;2022-08-19T07:21:16;20.40;99.90
32522;DHT22;18963;51.504;5.316;2022-08-19T07:23:43;20.60;99.90
32522;DHT22;18963;51.504;5.316;2022-08-19T07:26:09;20.70;99.90
32522;DHT22;18963;51.504;5.316;2022-08-19T07:28:35;20.80;99.90
32522;DHT22;18963;51.504;5.316;2022-08-19T07:31:05;20.90;99.90
32522;DHT22;18963;51.504;5.316;2022-08-19T07:33:30;21.00;99.90
32522;DHT22;18963;51.504;5.316;2022-08-19T07:35:57;21.10;99.90
32522;DHT22;18963;51.504;5.316;2022-08-19T07:38:23;21.20;99.90
32522;DHT22;18963;51.504;5.316;2022-08-19T07:40:48;21.20;99.90
32522;DHT22;18963;51.504;5.316;2022-08-19T07:43:16;21.20;99.90
32522;DHT22;18963;51.504;5.316;2022-08-19T07:45:45;21.20;99.90
32522;DHT22;18963;51.504;5.316;2022-08-19T07:48:12;21.10;99.90
32522;DHT22;18963;51.504;5.316;2022-08-19T07:50:37;21.00;99.90
32522;DHT22;18963;51.504;5.316;2022-08-19T07:53:03;20.90;99.90
32522;DHT22;18963;51.504;5.316;2022-08-19T07:55:29;20.80;99.90
32522;DHT22;18963;51.504;5.316;2022-08-19T07:57:55;20.70;99.90
32522;DHT22;18963;51.504;5.316;2022-08-19T08:00:20;20.70;99.90
32522;DHT22;18963;51.504;5.316;2022-08-19T08:02:46;20.60;99.90
32522;DHT22;18963;51.504;5.316;2022-08-19T08:05:11;20.50;99.90
32522;DHT22;18963;51.504;5.316;2022-08-19T08:07:55;20.50;99.90
32522;DHT22;18963;51.504;5.316;2022-08-19T08:10:40;20.50;99.90
32522;DHT22;18963;51.504;5.316;2022-08-19T08:13:05;20.50;99.90
32522;DHT22;18963;51.504;5.316;2022-08-19T08:15:31;20.50;99.90
32522;DHT22;18963;51.504;5.316;2022-08-19T08:17:56;20.60;99.90
32522;DHT22;18963;51.504;5.316;2022-08-19T08:20:23;20.70;99.90
32522;DHT22;18963;51.504;5.316;2022-08-19T08:22:49;20.80;99.90
32522;DHT22;18963;51.504;5.316;2022-08-19T08:25:33;20.90;99.90
32522;DHT22;18963;51.504;5.316;2022-08-19T08:28:00;21.00;99.90
32522;DHT22;18963;51.504;5.316;2022-08-19T08:30:27;21.20;99.90
32522;DHT22;18963;51.504;5.316;2022-08-19T08:32:53;21.30;99.90
32522;DHT22;18963;51.504;5.316;2022-08-19T08:35:19;21.40;99.90
32522;DHT22;18963;51.504;5.316;2022-08-19T08:37:46;21.40;99.90
32522;DHT22;18963;51.504;5.316;2022-08-19T08:42:39;21.50;99.90
32522;DHT22;18963;51.504;5.316;2022-08-19T08:45:14;21.40;99.90
32522;DHT22;18963;51.504;5.316;2022-08-19T08:47:43;21.40;99.90
32522;DHT22;18963;51.504;5.316;2022-08-19T08:50:19;21.30;99.90
32522;DHT22;18963;51.504;5.316;2022-08-19T08:52:52;21.30;99.90
32522;DHT22;18963;51.504;5.316;2022-08-19T08:55:19;21.40;99.90
32522;DHT22;18963;51.504;5.316;2022-08-19T09:00:37;21.50;99.90
32522;DHT22;18963;51.504;5.316;2022-08-19T09:03:04;21.60;99.90
32522;DHT22;18963;51.504;5.316;2022-08-19T09:05:40;21.60;99.90
32522;DHT22;18963;51.504;5.316;2022-08-19T09:08:13;21.60;99.90
32522;DHT22;18963;51.504;5.316;2022-08-19T09:10:44;21.70;99.90
32522;DHT22;18963;51.504;5.316;2022-08-19T09:13:18;21.80;99.90
32522;DHT22;18963;51.504;5.316;2022-08-19T09:15:49;22.00;99.90
32522;DHT22;18963;51.504;5.316;2022-08-19T09:18:17;21.90;99.90
32522;DHT22;18963;51.504;5.316;2022-08-19T09:20:43;21.90;99.90
32522;DHT22;18963;51.504;5.316;2022-08-19T09:23:10;21.90;99.90
32522;DHT22;18963;51.504;5.316;2022-08-19T09:25:36;21.80;99.90
32522;DHT22;18963;51.504;5.316;2022-08-19T09:28:01;21.80;99.90
32522;DHT22;18963;51.504;5.316;2022-08-19T09:30:31;21.90;99.90
32522;DHT22;18963;51.504;5.316;2022-08-19T09:32:57;21.90;99.90
32522;DHT22;18963;51.504;5.316;2022-08-19T09:35:25;22.00;99.90
32522;DHT22;18963;51.504;5.316;2022-08-19T09:37:51;22.10;99.90
32522;DHT22;18963;51.504;5.316;2022-08-19T09:40:17;22.20;99.90
32522;DHT22;18963;51.504;5.316;2022-08-19T09:42:44;22.20;99.90
32522;DHT22;18963;51.504;5.316;2022-08-19T09:45:11;22.20;99.90
32522;DHT22;18963;51.504;5.316;2022-08-19T09:47:37;22.20;99.90
32522;DHT22;18963;51.504;5.316;2022-08-19T09:50:06;22.10;99.90
32522;DHT22;18963;51.504;5.316;2022-08-19T09:52:32;22.10;99.90
32522;DHT22;18963;51.504;5.316;2022-08-19T09:54:58;22.00;99.90
32522;DHT22;18963;51.504;5.316;2022-08-19T09:57:23;22.00;99.90
32522;DHT22;18963;51.504;5.316;2022-08-19T09:59:49;22.00;99.90
32522;DHT22;18963;51.504;5.316;2022-08-19T10:02:14;21.90;99.90
32522;DHT22;18963;51.504;5.316;2022-08-19T10:04:40;21.90;99.90
32522;DHT22;18963;51.504;5.316;2022-08-19T10:07:24;21.80;99.90
32522;DHT22;18963;51.504;5.316;2022-08-19T10:09:49;22.00;99.90
32522;DHT22;18963;51.504;5.316;2022-08-19T10:12:15;22.10;99.90
32522;DHT22;18963;51.504;5.316;2022-08-19T10:14:41;22.20;99.90
32522;DHT22;18963;51.504;5.316;2022-08-19T10:17:06;22.40;99.90
32522;DHT22;18963;51.504;5.316;2022-08-19T10:19:32;22.50;99.90
32522;DHT22;18963;51.504;5.316;2022-08-19T10:22:04;22.60;99.90
32522;DHT22;18963;51.504;5.316;2022-08-19T10:24:30;22.60;99.90
32522;DHT22;18963;51.504;5.316;2022-08-19T10:26:56;22.60;99.90
32522;DHT22;18963;51.504;5.316;2022-08-19T10:29:21;22.70;99.90
32522;DHT22;18963;51.504;5.316;2022-08-19T10:31:47;22.70;99.90
32522;DHT22;18963;51.504;5.316;2022-08-19T10:34:13;22.90;99.90
32522;DHT22;18963;51.504;5.316;2022-08-19T10:36:38;23.20;99.90
32522;DHT22;18963;51.504;5.316;2022-08-19T10:39:05;23.40;99.90
32522;DHT22;18963;51.504;5.316;2022-08-19T10:41:32;23.60;99.90
32522;DHT22;18963;51.504;5.316;2022-08-19T10:43:59;23.90;99.90
32522;DHT22;18963;51.504;5.316;2022-08-19T10:46:25;24.20;99.90
32522;DHT22;18963;51.504;5.316;2022-08-19T10:48:51;24.40;99.90
32522;DHT22;18963;51.504;5.316;2022-08-19T10:51:17;24.40;99.90
32522;DHT22;18963;51.504;5.316;2022-08-19T10:54:01;24.50;99.90
32522;DHT22;18963;51.504;5.316;2022-08-19T10:56:27;24.50;99.90
32522;DHT22;18963;51.504;5.316;2022-08-19T10:59:12;24.50;99.90
32522;DHT22;18963;51.504;5.316;2022-08-19T11:01:39;24.40;99.90
32522;DHT22;18963;51.504;5.316;2022-08-19T11:04:06;24.40;99.90
32522;DHT22;18963;51.504;5.316;2022-08-19T11:06:35;24.30;99.90
32522;DHT22;18963;51.504;5.316;2022-08-19T11:09:01;24.20;99.90
32522;DHT22;18963;51.504;5.316;2022-08-19T11:11:26;24.30;99.90
32522;DHT22;18963;51.504;5.316;2022-08-19T11:13:53;24.30;99.90
32522;DHT22;18963;51.504;5.316;2022-08-19T11:16:19;24.40;99.90
32522;DHT22;18963;51.504;5.316;2022-08-19T11:18:50;24.50;99.90
32522;DHT22;18963;51.504;5.316;2022-08-19T11:21:23;24.60;99.90
32522;DHT22;18963;51.504;5.316;2022-08-19T11:23:50;24.90;99.90
32522;DHT22;18963;51.504;5.316;2022-08-19T11:26:16;25.30;99.90
32522;DHT22;18963;51.504;5.316;2022-08-19T11:28:42;25.50;99.90
32522;DHT22;18963;51.504;5.316;2022-08-19T11:31:14;25.60;99.90
32522;DHT22;18963;51.504;5.316;2022-08-19T11:33:40;25.80;99.90
32522;DHT22;18963;51.504;5.316;2022-08-19T11:36:06;26.00;99.90
32522;DHT22;18963;51.504;5.316;2022-08-19T11:38:32;26.20;99.90
32522;DHT22;18963;51.504;5.316;2022-08-19T11:41:00;26.50;99.90
32522;DHT22;18963;51.504;5.316;2022-08-19T11:43:26;26.90;99.90
32522;DHT22;18963;51.504;5.316;2022-08-19T11:45:52;27.30;99.90
32522;DHT22;18963;51.504;5.316;2022-08-19T11:48:18;27.30;99.90
32522;DHT22;18963;51.504;5.316;2022-08-19T11:50:49;27.30;99.90
32522;DHT22;18963;51.504;5.316;2022-08-19T11:53:16;27.40;99.90
32522;DHT22;18963;51.504;5.316;2022-08-19T11:55:41;27.30;99.90
32522;DHT22;18963;51.504;5.316;2022-08-19T11:58:08;27.20;99.90
32522;DHT22;18963;51.504;5.316;2022-08-19T12:00:33;27.00;99.90
32522;DHT22;18963;51.504;5.316;2022-08-19T12:03:00;26.80;99.90
32522;DHT22;18963;51.504;5.316;2022-08-19T12:05:26;26.60;99.90
32522;DHT22;18963;51.504;5.316;2022-08-19T12:07:51;26.40;99.90
32522;DHT22;18963;51.504;5.316;2022-08-19T12:10:17;26.20;99.90
32522;DHT22;18963;51.504;5.316;2022-08-19T12:12:43;26.10;99.90
32522;DHT22;18963;51.504;5.316;2022-08-19T12:15:11;26.10;99.90
32522;DHT22;18963;51.504;5.316;2022-08-19T12:17:37;26.10;99.90
32522;DHT22;18963;51.504;5.316;2022-08-19T12:20:03;26.10;99.90
32522;DHT22;18963;51.504;5.316;2022-08-19T12:22:29;26.10;99.90
32522;DHT22;18963;51.504;5.316;2022-08-19T12:24:54;26.30;99.90
32522;DHT22;18963;51.504;5.316;2022-08-19T12:27:20;26.40;99.90
32522;DHT22;18963;51.504;5.316;2022-08-19T12:29:46;26.60;99.90
32522;DHT22;18963;51.504;5.316;2022-08-19T12:32:11;26.70;99.90
32522;DHT22;18963;51.504;5.316;2022-08-19T12:34:37;26.90;99.90
32522;DHT22;18963;51.504;5.316;2022-08-19T12:37:04;27.20;99.90
32522;DHT22;18963;51.504;5.316;2022-08-19T12:39:30;27.50;99.90
32522;DHT22;18963;51.504;5.316;2022-08-19T12:41:58;27.80;99.90
32522;DHT22;18963;51.504;5.316;2022-08-19T12:44:24;28.00;99.90
32522;DHT22;18963;51.504;5.316;2022-08-19T12:46:49;28.10;99.90
32522;DHT22;18963;51.504;5.316;2022-08-19T12:49:15;28.00;99.90
32522;DHT22;18963;51.504;5.316;2022-08-19T12:51:41;27.80;99.90
32522;DHT22;18963;51.504;5.316;2022-08-19T12:54:06;27.50;99.90
32522;DHT22;18963;51.504;5.316;2022-08-19T12:56:32;27.40;99.90
32522;DHT22;18963;51.504;5.316;2022-08-19T12:59:00;27.00;99.90
32522;DHT22;18963;51.504;5.316;2022-08-19T13:01:26;26.90;99.90
32522;DHT22;18963;51.504;5.316;2022-08-19T13:03:52;26.80;99.90
32522;DHT22;18963;51.504;5.316;2022-08-19T13:06:18;26.60;99.90
32522;DHT22;18963;51.504;5.316;2022-08-19T13:08:43;26.30;99.90
32522;DHT22;18963;51.504;5.316;2022-08-19T13:11:14;26.20;99.90
32522;DHT22;18963;51.504;5.316;2022-08-19T13:13:40;26.10;99.90
32522;DHT22;18963;51.504;5.316;2022-08-19T13:16:07;26.00;99.90
32522;DHT22;18963;51.504;5.316;2022-08-19T13:18:32;26.00;99.90
32522;DHT22;18963;51.504;5.316;2022-08-19T13:21:02;26.10;99.90
32522;DHT22;18963;51.504;5.316;2022-08-19T13:23:28;26.10;99.90
32522;DHT22;18963;51.504;5.316;2022-08-19T13:25:58;26.20;99.90
32522;DHT22;18963;51.504;5.316;2022-08-19T13:28:23;26.10;99.90
32522;DHT22;18963;51.504;5.316;2022-08-19T13:30:49;26.00;99.90
32522;DHT22;18963;51.504;5.316;2022-08-19T13:33:44;26.00;99.90
32522;DHT22;18963;51.504;5.316;2022-08-19T13:36:10;25.80;99.90
32522;DHT22;18963;51.504;5.316;2022-08-19T13:38:35;25.80;99.90
32522;DHT22;18963;51.504;5.316;2022-08-19T13:41:04;25.70;99.90
32522;DHT22;18963;51.504;5.316;2022-08-19T13:43:30;25.50;99.90
32522;DHT22;18963;51.504;5.316;2022-08-19T13:45:55;25.40;99.90
32522;DHT22;18963;51.504;5.316;2022-08-19T13:48:21;25.20;99.90
32522;DHT22;18963;51.504;5.316;2022-08-19T13:50:47;25.00;99.90
32522;DHT22;18963;51.504;5.316;2022-08-19T13:53:13;24.80;99.90
32522;DHT22;18963;51.504;5.316;2022-08-19T13:55:39;24.70;99.90
32522;DHT22;18963;51.504;5.316;2022-08-19T13:58:05;24.60;99.90
32522;DHT22;18963;51.504;5.316;2022-08-19T14:00:32;24.60;99.90
32522;DHT22;18963;51.504;5.316;2022-08-19T14:02:58;24.60;99.90
32522;DHT22;18963;51.504;5.316;2022-08-19T14:05:25;24.70;99.90
32522;DHT22;18963;51.504;5.316;2022-08-19T14:07:51;24.90;99.90
32522;DHT22;18963;51.504;5.316;2022-08-19T14:10:17;25.10;99.90
32522;DHT22;18963;51.504;5.316;2022-08-19T14:12:44;25.30;99.90
32522;DHT22;18963;51.504;5.316;2022-08-19T14:15:10;25.40;99.90
32522;DHT22;18963;51.504;5.316;2022-08-19T14:17:39;25.60;99.90
32522;DHT22;18963;51.504;5.316;2022-08-19T14:20:06;25.80;99.90
32522;DHT22;18963;51.504;5.316;2022-08-19T14:22:34;25.90;99.90
32522;DHT22;18963;51.504;5.316;2022-08-19T14:25:01;25.90;99.90
32522;DHT22;18963;51.504;5.316;2022-08-19T14:27:26;25.90;99.90
32522;DHT22;18963;51.504;5.316;2022-08-19T14:29:52;25.90;99.90
32522;DHT22;18963;51.504;5.316;2022-08-19T14:32:17;25.80;99.90
32522;DHT22;18963;51.504;5.316;2022-08-19T14:34:43;25.80;99.90
32522;DHT22;18963;51.504;5.316;2022-08-19T14:37:11;25.70;99.90
32522;DHT22;18963;51.504;5.316;2022-08-19T14:39:39;25.70;99.90
32522;DHT22;18963;51.504;5.316;2022-08-19T14:42:06;25.60;99.90
32522;DHT22;18963;51.504;5.316;2022-08-19T14:44:33;25.60;99.90
32522;DHT22;18963;51.504;5.316;2022-08-19T14:46:59;25.50;99.90
32522;DHT22;18963;51.504;5.316;2022-08-19T14:49:24;25.40;99.90
32522;DHT22;18963;51.504;5.316;2022-08-19T14:51:50;25.20;99.90
32522;DHT22;18963;51.504;5.316;2022-08-19T14:54:15;25.10;99.90
32522;DHT22;18963;51.504;5.316;2022-08-19T14:56:41;25.10;99.90
32522;DHT22;18963;51.504;5.316;2022-08-19T14:59:06;25.10;99.90
32522;DHT22;18963;51.504;5.316;2022-08-19T15:01:32;25.20;99.90
32522;DHT22;18963;51.504;5.316;2022-08-19T15:03:57;25.30;99.90
32522;DHT22;18963;51.504;5.316;2022-08-19T15:06:23;25.40;99.90
32522;DHT22;18963;51.504;5.316;2022-08-19T15:08:49;25.50;99.90
32522;DHT22;18963;51.504;5.316;2022-08-19T15:11:17;25.50;99.90
32522;DHT22;18963;51.504;5.316;2022-08-19T15:13:45;25.60;99.90
32522;DHT22;18963;51.504;5.316;2022-08-19T15:16:12;25.70;99.90
32522;DHT22;18963;51.504;5.316;2022-08-19T15:18:40;25.60;99.90
32522;DHT22;18963;51.504;5.316;2022-08-19T15:21:07;25.60;99.90
32522;DHT22;18963;51.504;5.316;2022-08-19T15:23:34;25.60;99.90
32522;DHT22;18963;51.504;5.316;2022-08-19T15:26:00;25.50;99.90
32522;DHT22;18963;51.504;5.316;2022-08-19T15:28:26;25.40;99.90
32522;DHT22;18963;51.504;5.316;2022-08-19T15:30:52;25.40;99.90
32522;DHT22;18963;51.504;5.316;2022-08-19T15:33:18;25.40;99.90
32522;DHT22;18963;51.504;5.316;2022-08-19T15:35:45;25.40;99.90